sensor_id;sensor_type;location;lat;lon;timestamp;pressure;altitude;pressure_sealevel;temperature;humidity
78073;BME280;67281;48.770;11.440;2023-09-08T00:00:47;97561.28;;;24.00;50.20
78073;BME280;67281;48.770;11.440;2023-09-08T00:03:14;97556.94;;;23.99;50.21
78073;BME280;67281;48.770;11.440;2023-09-08T00:05:41;97563.13;;;23.99;49.65
78073;BME280;67281;48.770;11.440;2023-09-08T00:08:08;97561.47;;;23.98;50.02
78073;BME280;67281;48.770;11.440;2023-09-08T00:10:35;97565.81;;;23.99;50.21
78073;BME280;67281;48.770;11.440;2023-09-08T00:13:02;97562.66;;;23.96;50.27
78073;BME280;67281;48.770;11.440;2023-09-08T00:15:29;97559.97;;;23.96;49.72
78073;BME280;67281;48.770;11.440;2023-09-08T00:17:55;97562.00;;;23.93;50.50
78073;BME280;67281;48.770;11.440;2023-09-08T00:20:24;97562.84;;;23.94;50.10
78073;BME280;67281;48.770;11.440;2023-09-08T00:22:51;97557.84;;;23.91;50.60
78073;BME280;67281;48.770;11.440;2023-09-08T00:25:17;97564.22;;;23.90;50.17
78073;BME280;67281;48.770;11.440;2023-09-08T00:27:44;97561.53;;;23.90;50.54
78073;BME280;67281;48.770;11.440;2023-09-08T00:30:11;97555.53;;;23.88;50.04
78073;BME280;67281;48.770;11.440;2023-09-08T00:32:38;97553.88;;;23.87;50.64
78073;BME280;67281;48.770;11.440;2023-09-08T00:35:06;97562.94;;;23.86;50.54
78073;BME280;67281;48.770;11.440;2023-09-08T00:37:34;97555.06;;;23.84;49.79
78073;BME280;67281;48.770;11.440;2023-09-08T00:40:00;97554.06;;;23.85;50.32
78073;BME280;67281;48.770;11.440;2023-09-08T00:42:27;97548.06;;;23.83;49.83
78073;BME280;67281;48.770;11.440;2023-09-08T00:44:54;97549.25;;;23.81;50.50
78073;BME280;67281;48.770;11.440;2023-09-08T00:47:21;97548.44;;;23.80;50.17
78073;BME280;67281;48.770;11.440;2023-09-08T00:49:48;97545.09;;;23.78;50.35
78073;BME280;67281;48.770;11.440;2023-09-08T00:52:18;97553.97;;;23.79;50.47
78073;BME280;67281;48.770;11.440;2023-09-08T00:54:45;97553.34;;;23.77;49.89
78073;BME280;67281;48.770;11.440;2023-09-08T00:57:12;97548.00;;;23.77;50.48
78073;BME280;67281;48.770;11.440;2023-09-08T00:59:39;97545.50;;;23.75;49.95
78073;BME280;67281;48.770;11.440;2023-09-08T01:02:06;97542.81;;;23.75;50.25
78073;BME280;67281;48.770;11.440;2023-09-08T01:04:33;97550.19;;;23.73;50.30
78073;BME280;67281;48.770;11.440;2023-09-08T01:07:00;97546.69;;;23.73;50.12
78073;BME280;67281;48.770;11.440;2023-09-08T01:09:28;97544.19;;;23.71;50.15
78073;BME280;67281;48.770;11.440;2023-09-08T01:11:55;97546.03;;;23.71;49.76
78073;BME280;67281;48.770;11.440;2023-09-08T01:14:27;97540.69;;;23.71;49.84
78073;BME280;67281;48.770;11.440;2023-09-08T01:16:54;97542.34;;;23.72;50.23
78073;BME280;67281;48.770;11.440;2023-09-08T01:19:21;97541.34;;;23.73;50.38
78073;BME280;67281;48.770;11.440;2023-09-08T01:27:42;97545.88;;;23.72;50.38
78073;BME280;67281;48.770;11.440;2023-09-08T01:30:10;97539.69;;;23.72;50.10
78073;BME280;67281;48.770;11.440;2023-09-08T01:32:40;97542.53;;;23.70;49.85
78073;BME280;67281;48.770;11.440;2023-09-08T01:35:07;97550.56;;;23.70;50.41
78073;BME280;67281;48.770;11.440;2023-09-08T01:37:34;97541.06;;;23.68;50.09
78073;BME280;67281;48.770;11.440;2023-09-08T01:40:01;97538.38;;;23.68;50.10
78073;BME280;67281;48.770;11.440;2023-09-08T01:42:28;97549.09;;;23.68;50.27
78073;BME280;67281;48.770;11.440;2023-09-08T01:44:55;97547.44;;;23.67;49.96
78073;BME280;67281;48.770;11.440;2023-09-08T01:47:22;97541.25;;;23.66;50.01
78073;BME280;67281;48.770;11.440;2023-09-08T01:49:48;97540.78;;;23.63;50.83
78073;BME280;67281;48.770;11.440;2023-09-08T01:52:15;97544.28;;;23.63;50.69
78073;BME280;67281;48.770;11.440;2023-09-08T01:54:42;97536.78;;;23.58;50.42
78073;BME280;67281;48.770;11.440;2023-09-08T01:57:09;97543.16;;;23.57;50.55
78073;BME280;67281;48.770;11.440;2023-09-08T01:59:36;97538.66;;;23.58;50.64
78073;BME280;67281;48.770;11.440;2023-09-08T02:02:04;97537.34;;;23.54;50.13
78073;BME280;67281;48.770;11.440;2023-09-08T02:04:31;97535.50;;;23.54;50.66
78073;BME280;67281;48.770;11.440;2023-09-08T02:06:58;97530.28;;;23.53;50.10
78073;BME280;67281;48.770;11.440;2023-09-08T02:09:32;97525.81;;;23.53;50.31
78073;BME280;67281;48.770;11.440;2023-09-08T02:12:00;97526.78;;;23.52;50.31
78073;BME280;67281;48.770;11.440;2023-09-08T02:14:27;97530.66;;;23.50;50.11
78073;BME280;67281;48.770;11.440;2023-09-08T02:16:55;97535.81;;;23.51;50.52
78073;BME280;67281;48.770;11.440;2023-09-08T02:19:22;97524.28;;;23.51;50.36
78073;BME280;67281;48.770;11.440;2023-09-08T02:21:49;97524.28;;;23.51;50.28
78073;BME280;67281;48.770;11.440;2023-09-08T02:24:16;97522.63;;;23.50;50.71
78073;BME280;67281;48.770;11.440;2023-09-08T02:26:43;97529.66;;;23.51;50.72
78073;BME280;67281;48.770;11.440;2023-09-08T02:29:10;97533.50;;;23.48;50.52
78073;BME280;67281;48.770;11.440;2023-09-08T02:31:37;97528.16;;;23.48;50.77
78073;BME280;67281;48.770;11.440;2023-09-08T02:34:04;97522.81;;;23.48;50.25
78073;BME280;67281;48.770;11.440;2023-09-08T02:36:31;97520.31;;;23.47;50.43
78073;BME280;67281;48.770;11.440;2023-09-08T02:38:58;97524.00;;;23.46;50.03
78073;BME280;67281;48.770;11.440;2023-09-08T02:41:25;97521.50;;;23.44;50.45
78073;BME280;67281;48.770;11.440;2023-09-08T02:43:51;97516.16;;;23.44;50.52
78073;BME280;67281;48.770;11.440;2023-09-08T02:46:18;97517.34;;;23.42;50.38
78073;BME280;67281;48.770;11.440;2023-09-08T02:48:45;97515.50;;;23.42;50.79
78073;BME280;67281;48.770;11.440;2023-09-08T02:51:12;97518.38;;;23.41;50.65
78073;BME280;67281;48.770;11.440;2023-09-08T02:53:39;97514.88;;;23.40;50.42
78073;BME280;67281;48.770;11.440;2023-09-08T02:56:06;97522.88;;;23.40;50.42
78073;BME280;67281;48.770;11.440;2023-09-08T02:58:33;97519.56;;;23.38;50.42
78073;BME280;67281;48.770;11.440;2023-09-08T03:01:17;97524.09;;;23.38;50.40
78073;BME280;67281;48.770;11.440;2023-09-08T03:03:47;97525.94;;;23.37;50.49
78073;BME280;67281;48.770;11.440;2023-09-08T03:06:18;97523.44;;;23.36;50.75
78073;BME280;67281;48.770;11.440;2023-09-08T03:08:46;97516.41;;;23.35;50.46
78073;BME280;67281;48.770;11.440;2023-09-08T03:11:13;97516.59;;;23.33;50.16
78073;BME280;67281;48.770;11.440;2023-09-08T03:13:40;97521.94;;;23.33;50.24
78073;BME280;67281;48.770;11.440;2023-09-08T03:16:08;97523.78;;;23.33;50.63
78073;BME280;67281;48.770;11.440;2023-09-08T03:18:36;97520.47;;;23.31;50.18
78073;BME280;67281;48.770;11.440;2023-09-08T03:21:04;97530.34;;;23.30;50.51
78073;BME280;67281;48.770;11.440;2023-09-08T03:23:37;97532.19;;;23.30;50.66
78073;BME280;67281;48.770;11.440;2023-09-08T03:26:04;97524.50;;;23.26;51.09
78073;BME280;67281;48.770;11.440;2023-09-08T03:28:32;97524.50;;;23.26;51.08
78073;BME280;67281;48.770;11.440;2023-09-08T03:31:00;97528.19;;;23.25;50.81
78073;BME280;67281;48.770;11.440;2023-09-08T03:33:27;97523.84;;;23.24;50.54
78073;BME280;67281;48.770;11.440;2023-09-08T03:35:54;97528.38;;;23.24;50.74
78073;BME280;67281;48.770;11.440;2023-09-08T03:38:22;97528.56;;;23.22;50.69
78073;BME280;67281;48.770;11.440;2023-09-08T03:40:49;97530.41;;;23.22;50.58
78073;BME280;67281;48.770;11.440;2023-09-08T03:43:16;97527.72;;;23.22;50.70
78073;BME280;67281;48.770;11.440;2023-09-08T03:45:43;97528.09;;;23.19;50.77
78073;BME280;67281;48.770;11.440;2023-09-08T03:48:10;97533.44;;;23.19;51.07
78073;BME280;67281;48.770;11.440;2023-09-08T03:50:37;97525.59;;;23.17;50.40
78073;BME280;67281;48.770;11.440;2023-09-08T03:53:05;97533.78;;;23.16;50.39
78073;BME280;67281;48.770;11.440;2023-09-08T03:55:32;97525.78;;;23.16;50.33
78073;BME280;67281;48.770;11.440;2023-09-08T03:57:58;97524.94;;;23.15;50.73
78073;BME280;67281;48.770;11.440;2023-09-08T04:00:25;97523.28;;;23.14;50.58
78073;BME280;67281;48.770;11.440;2023-09-08T04:02:52;97516.44;;;23.12;51.00
78073;BME280;67281;48.770;11.440;2023-09-08T04:05:20;97520.13;;;23.11;50.74
78073;BME280;67281;48.770;11.440;2023-09-08T04:07:47;97513.94;;;23.10;50.74
78073;BME280;67281;48.770;11.440;2023-09-08T04:10:14;97525.66;;;23.09;50.81
78073;BME280;67281;48.770;11.440;2023-09-08T04:12:41;97523.16;;;23.08;50.63
78073;BME280;67281;48.770;11.440;2023-09-08T04:15:09;97523.16;;;23.08;50.40
78073;BME280;67281;48.770;11.440;2023-09-08T04:17:36;97526.66;;;23.08;50.85
78073;BME280;67281;48.770;11.440;2023-09-08T04:20:05;97521.50;;;23.07;50.73
78073;BME280;67281;48.770;11.440;2023-09-08T04:22:32;97520.66;;;23.06;50.23
78073;BME280;67281;48.770;11.440;2023-09-08T04:25:00;97527.84;;;23.06;50.52
78073;BME280;67281;48.770;11.440;2023-09-08T04:27:27;97527.19;;;23.04;50.57
78073;BME280;67281;48.770;11.440;2023-09-08T04:29:54;97524.53;;;23.04;50.20
78073;BME280;67281;48.770;11.440;2023-09-08T04:32:21;97523.25;;;23.00;50.34
78073;BME280;67281;48.770;11.440;2023-09-08T04:34:47;97531.44;;;22.98;50.45
78073;BME280;67281;48.770;11.440;2023-09-08T04:37:16;97531.63;;;22.97;50.99
78073;BME280;67281;48.770;11.440;2023-09-08T04:39:43;97537.81;;;22.97;50.83
78073;BME280;67281;48.770;11.440;2023-09-08T04:42:10;97541.31;;;22.98;51.18
78073;BME280;67281;48.770;11.440;2023-09-08T04:44:37;97539.66;;;22.97;51.21
78073;BME280;67281;48.770;11.440;2023-09-08T04:47:05;97534.31;;;22.97;50.99
78073;BME280;67281;48.770;11.440;2023-09-08T04:49:32;97549.69;;;22.94;51.30
78073;BME280;67281;48.770;11.440;2023-09-08T04:51:58;97543.69;;;22.92;50.90
78073;BME280;67281;48.770;11.440;2023-09-08T04:54:25;97544.50;;;22.93;51.01
78073;BME280;67281;48.770;11.440;2023-09-08T04:56:54;97546.34;;;22.92;50.97
78073;BME280;67281;48.770;11.440;2023-09-08T04:59:37;97553.53;;;22.92;51.01
78073;BME280;67281;48.770;11.440;2023-09-08T05:02:06;97551.03;;;22.90;51.36
78073;BME280;67281;48.770;11.440;2023-09-08T05:04:33;97547.53;;;22.90;51.03
78073;BME280;67281;48.770;11.440;2023-09-08T05:07:00;97551.03;;;22.90;50.67
78073;BME280;67281;48.770;11.440;2023-09-08T05:09:27;97555.56;;;22.90;51.41
78073;BME280;67281;48.770;11.440;2023-09-08T05:11:54;97553.91;;;22.89;51.31
78073;BME280;67281;48.770;11.440;2023-09-08T05:14:21;97557.41;;;22.89;51.66
78073;BME280;67281;48.770;11.440;2023-09-08T05:16:48;97559.41;;;22.87;50.96
78073;BME280;67281;48.770;11.440;2023-09-08T05:19:22;97558.75;;;22.85;51.58
78073;BME280;67281;48.770;11.440;2023-09-08T05:21:51;97556.09;;;22.85;51.14
78073;BME280;67281;48.770;11.440;2023-09-08T05:24:18;97557.94;;;22.85;51.07
78073;BME280;67281;48.770;11.440;2023-09-08T05:26:45;97556.25;;;22.84;51.02
78073;BME280;67281;48.770;11.440;2023-09-08T05:29:12;97555.44;;;22.83;51.11
78073;BME280;67281;48.770;11.440;2023-09-08T05:31:39;97564.28;;;22.84;51.59
78073;BME280;67281;48.770;11.440;2023-09-08T05:34:06;97562.63;;;22.83;51.53
78073;BME280;67281;48.770;11.440;2023-09-08T05:36:33;97561.63;;;22.84;51.70
78073;BME280;67281;48.770;11.440;2023-09-08T05:39:03;97566.13;;;22.83;51.04
78073;BME280;67281;48.770;11.440;2023-09-08T05:41:31;97563.44;;;22.83;51.80
78073;BME280;67281;48.770;11.440;2023-09-08T05:44:00;97570.63;;;22.83;51.47
78073;BME280;67281;48.770;11.440;2023-09-08T05:46:27;97580.50;;;22.82;51.19
78073;BME280;67281;48.770;11.440;2023-09-08T05:48:54;97569.97;;;22.81;51.31
78073;BME280;67281;48.770;11.440;2023-09-08T05:51:21;97571.66;;;22.82;51.20
78073;BME280;67281;48.770;11.440;2023-09-08T05:53:49;97571.00;;;22.80;51.50
78073;BME280;67281;48.770;11.440;2023-09-08T05:56:18;97578.81;;;22.81;51.66
78073;BME280;67281;48.770;11.440;2023-09-08T05:58:46;97573.47;;;22.81;51.77
78073;BME280;67281;48.770;11.440;2023-09-08T06:01:15;97581.50;;;22.81;51.54
78073;BME280;67281;48.770;11.440;2023-09-08T06:03:42;97582.50;;;22.80;51.08
78073;BME280;67281;48.770;11.440;2023-09-08T06:06:09;97587.03;;;22.80;51.49
78073;BME280;67281;48.770;11.440;2023-09-08T06:08:36;97585.19;;;22.80;51.06
78073;BME280;67281;48.770;11.440;2023-09-08T06:11:03;97588.69;;;22.81;51.44
78073;BME280;67281;48.770;11.440;2023-09-08T06:13:30;97583.50;;;22.79;51.39
78073;BME280;67281;48.770;11.440;2023-09-08T06:15:57;97581.00;;;22.78;51.48
78073;BME280;67281;48.770;11.440;2023-09-08T06:18:27;97589.69;;;22.80;51.13
78073;BME280;67281;48.770;11.440;2023-09-08T06:20:54;97591.53;;;22.79;51.74
78073;BME280;67281;48.770;11.440;2023-09-08T06:23:21;97594.34;;;22.78;51.01
78073;BME280;67281;48.770;11.440;2023-09-08T06:25:49;97589.84;;;22.78;51.47
78073;BME280;67281;48.770;11.440;2023-09-08T06:28:16;97586.34;;;22.78;51.48
78073;BME280;67281;48.770;11.440;2023-09-08T06:30:44;97586.34;;;22.78;51.80
78073;BME280;67281;48.770;11.440;2023-09-08T06:33:10;97589.00;;;22.78;51.05
78073;BME280;67281;48.770;11.440;2023-09-08T06:35:38;97590.69;;;22.79;51.31
78073;BME280;67281;48.770;11.440;2023-09-08T06:38:05;97596.03;;;22.79;51.21
78073;BME280;67281;48.770;11.440;2023-09-08T06:40:32;97592.38;;;22.80;51.46
78073;BME280;67281;48.770;11.440;2023-09-08T06:42:59;97595.03;;;22.80;50.98
78073;BME280;67281;48.770;11.440;2023-09-08T06:45:29;97595.19;;;22.78;51.70
78073;BME280;67281;48.770;11.440;2023-09-08T06:47:56;97595.19;;;22.78;51.17
78073;BME280;67281;48.770;11.440;2023-09-08T06:50:24;97597.84;;;22.78;51.77
78073;BME280;67281;48.770;11.440;2023-09-08T06:52:51;97596.88;;;22.79;51.23
78073;BME280;67281;48.770;11.440;2023-09-08T06:55:18;97604.91;;;22.79;51.50
78073;BME280;67281;48.770;11.440;2023-09-08T06:57:46;97595.19;;;22.78;51.00
78073;BME280;67281;48.770;11.440;2023-09-08T07:00:14;97598.84;;;22.77;51.17
78073;BME280;67281;48.770;11.440;2023-09-08T07:02:41;97593.50;;;22.77;51.60
78073;BME280;67281;48.770;11.440;2023-09-08T07:05:08;97599.69;;;22.78;50.89
78073;BME280;67281;48.770;11.440;2023-09-08T07:07:36;97603.38;;;22.77;51.27
78073;BME280;67281;48.770;11.440;2023-09-08T07:10:04;97597.19;;;22.76;50.87
78073;BME280;67281;48.770;11.440;2023-09-08T07:12:31;97596.38;;;22.76;51.40
78073;BME280;67281;48.770;11.440;2023-09-08T07:14:57;97597.19;;;22.76;51.39
78073;BME280;67281;48.770;11.440;2023-09-08T07:17:26;97597.19;;;22.76;51.50
78073;BME280;67281;48.770;11.440;2023-09-08T07:19:53;97592.69;;;22.77;51.58
78073;BME280;67281;48.770;11.440;2023-09-08T07:22:20;97599.03;;;22.76;51.20
78073;BME280;67281;48.770;11.440;2023-09-08T07:24:47;97590.19;;;22.75;51.47
78073;BME280;67281;48.770;11.440;2023-09-08T07:27:14;97598.38;;;22.74;51.21
78073;BME280;67281;48.770;11.440;2023-09-08T07:29:41;97593.22;;;22.72;50.75
78073;BME280;67281;48.770;11.440;2023-09-08T07:32:08;97595.88;;;22.72;50.95
78073;BME280;67281;48.770;11.440;2023-09-08T07:34:36;97589.69;;;22.72;51.76
78073;BME280;67281;48.770;11.440;2023-09-08T07:37:03;97599.22;;;22.74;51.79
78073;BME280;67281;48.770;11.440;2023-09-08T07:39:30;97584.84;;;22.75;51.03
78073;BME280;67281;48.770;11.440;2023-09-08T07:41:56;97591.03;;;22.76;51.16
78073;BME280;67281;48.770;11.440;2023-09-08T07:44:27;97583.00;;;22.76;51.42
78073;BME280;67281;48.770;11.440;2023-09-08T07:46:54;97585.53;;;22.69;51.07
78073;BME280;67281;48.770;11.440;2023-09-08T07:49:23;97589.41;;;22.67;51.60
78073;BME280;67281;48.770;11.440;2023-09-08T07:51:50;97591.72;;;22.70;50.69
78073;BME280;67281;48.770;11.440;2023-09-08T07:54:17;97594.22;;;22.71;51.09
78073;BME280;67281;48.770;11.440;2023-09-08T07:56:46;97588.22;;;22.69;50.98
78073;BME280;67281;48.770;11.440;2023-09-08T07:59:13;97590.72;;;22.71;50.89
78073;BME280;67281;48.770;11.440;2023-09-08T08:01:40;97589.88;;;22.70;51.21
78073;BME280;67281;48.770;11.440;2023-09-08T08:04:07;97587.03;;;22.72;50.92
78073;BME280;67281;48.770;11.440;2023-09-08T08:06:35;97584.53;;;22.70;51.38
78073;BME280;67281;48.770;11.440;2023-09-08T08:09:02;97589.22;;;22.68;51.13
78073;BME280;67281;48.770;11.440;2023-09-08T08:11:29;97586.19;;;22.71;50.96
78073;BME280;67281;48.770;11.440;2023-09-08T08:13:56;97588.88;;;22.71;50.85
78073;BME280;67281;48.770;11.440;2023-09-08T08:16:23;97597.53;;;22.73;51.02
78073;BME280;67281;48.770;11.440;2023-09-08T08:18:51;97598.56;;;22.72;50.94
78073;BME280;67281;48.770;11.440;2023-09-08T08:21:18;97603.25;;;22.70;50.83
78073;BME280;67281;48.770;11.440;2023-09-08T08:23:45;97596.72;;;22.73;51.31
78073;BME280;67281;48.770;11.440;2023-09-08T08:26:12;97593.03;;;22.74;50.87
78073;BME280;67281;48.770;11.440;2023-09-08T08:28:39;97592.19;;;22.73;50.69
78073;BME280;67281;48.770;11.440;2023-09-08T08:31:06;97589.34;;;22.75;50.98
78073;BME280;67281;48.770;11.440;2023-09-08T08:33:33;97595.53;;;22.75;50.99
78073;BME280;67281;48.770;11.440;2023-09-08T08:36:00;97581.16;;;22.76;51.05
78073;BME280;67281;48.770;11.440;2023-09-08T08:38:27;97578.84;;;22.73;51.52
78073;BME280;67281;48.770;11.440;2023-09-08T08:40:54;97588.53;;;22.74;51.02
78073;BME280;67281;48.770;11.440;2023-09-08T08:43:21;97579.50;;;22.75;51.52
78073;BME280;67281;48.770;11.440;2023-09-08T08:45:50;97582.00;;;22.77;51.48
78073;BME280;67281;48.770;11.440;2023-09-08T08:48:19;97584.50;;;22.78;50.86
78073;BME280;67281;48.770;11.440;2023-09-08T08:50:47;97582.69;;;22.79;51.08
78073;BME280;67281;48.770;11.440;2023-09-08T08:53:15;97579.00;;;22.80;50.96
78073;BME280;67281;48.770;11.440;2023-09-08T08:55:44;97588.69;;;22.81;51.26
78073;BME280;67281;48.770;11.440;2023-09-08T08:58:12;97583.16;;;22.82;51.36
78073;BME280;67281;48.770;11.440;2023-09-08T09:00:41;97582.34;;;22.82;50.86
78073;BME280;67281;48.770;11.440;2023-09-08T09:03:09;97578.66;;;22.83;50.78
78073;BME280;67281;48.770;11.440;2023-09-08T09:05:41;97574.78;;;22.85;51.63
78073;BME280;67281;48.770;11.440;2023-09-08T09:08:15;97579.31;;;22.85;51.19
78073;BME280;67281;48.770;11.440;2023-09-08T09:10:42;97578.47;;;22.84;51.52
78073;BME280;67281;48.770;11.440;2023-09-08T09:13:09;97580.97;;;22.86;51.54
78073;BME280;67281;48.770;11.440;2023-09-08T09:15:36;97583.47;;;22.87;51.91
78073;BME280;67281;48.770;11.440;2023-09-08T09:18:07;97570.75;;;22.89;51.33
78073;BME280;67281;48.770;11.440;2023-09-08T09:20:34;97572.44;;;22.90;50.85
78073;BME280;67281;48.770;11.440;2023-09-08T09:23:01;97571.41;;;22.91;51.17
78073;BME280;67281;48.770;11.440;2023-09-08T09:25:30;97561.38;;;22.93;51.06
78073;BME280;67281;48.770;11.440;2023-09-08T09:28:02;97565.72;;;22.94;51.00
78073;BME280;67281;48.770;11.440;2023-09-08T09:30:46;97559.38;;;22.96;51.31
78073;BME280;67281;48.770;11.440;2023-09-08T09:33:14;97564.53;;;22.97;51.85
78073;BME280;67281;48.770;11.440;2023-09-08T09:35:52;97561.88;;;22.97;51.74
78073;BME280;67281;48.770;11.440;2023-09-08T09:38:21;97558.00;;;23.00;51.27
78073;BME280;67281;48.770;11.440;2023-09-08T09:40:48;97559.84;;;22.99;51.61
78073;BME280;67281;48.770;11.440;2023-09-08T09:43:16;97557.81;;;23.01;51.44
78073;BME280;67281;48.770;11.440;2023-09-08T09:45:44;97560.28;;;23.03;51.55
78073;BME280;67281;48.770;11.440;2023-09-08T09:48:11;97552.94;;;23.05;51.60
78073;BME280;67281;48.770;11.440;2023-09-08T09:50:40;97558.09;;;23.06;51.83
78073;BME280;67281;48.770;11.440;2023-09-08T09:53:10;97556.06;;;23.08;50.98
78073;BME280;67281;48.770;11.440;2023-09-08T09:55:39;97559.22;;;23.12;51.82
78073;BME280;67281;48.770;11.440;2023-09-08T09:58:07;97557.19;;;23.14;50.74
78073;BME280;67281;48.770;11.440;2023-09-08T10:00:35;97555.34;;;23.14;51.52
78073;BME280;67281;48.770;11.440;2023-09-08T10:03:04;97562.19;;;23.17;51.71
78073;BME280;67281;48.770;11.440;2023-09-08T10:05:31;97551.50;;;23.17;51.34
78073;BME280;67281;48.770;11.440;2023-09-08T10:07:58;97548.47;;;23.20;51.34
78073;BME280;67281;48.770;11.440;2023-09-08T10:10:26;97556.13;;;23.23;51.67
78073;BME280;67281;48.770;11.440;2023-09-08T10:12:57;97560.28;;;23.25;51.20
78073;BME280;67281;48.770;11.440;2023-09-08T10:15:28;97560.09;;;23.27;50.77
78073;BME280;67281;48.770;11.440;2023-09-08T10:17:56;97548.41;;;23.28;50.75
78073;BME280;67281;48.770;11.440;2023-09-08T10:20:27;97545.53;;;23.30;51.06
78073;BME280;67281;48.770;11.440;2023-09-08T10:23:12;97545.19;;;23.33;51.23
78073;BME280;67281;48.770;11.440;2023-09-08T10:25:46;97548.97;;;23.38;50.91
78073;BME280;67281;48.770;11.440;2023-09-08T10:28:23;97544.00;;;23.35;51.03
78073;BME280;67281;48.770;11.440;2023-09-08T10:30:51;97540.31;;;23.36;51.27
78073;BME280;67281;48.770;11.440;2023-09-08T10:33:19;97546.50;;;23.37;51.92
78073;BME280;67281;48.770;11.440;2023-09-08T10:35:47;97545.31;;;23.39;51.14
78073;BME280;67281;48.770;11.440;2023-09-08T10:38:28;97541.25;;;23.43;51.13
78073;BME280;67281;48.770;11.440;2023-09-08T10:43:44;97537.50;;;23.52;50.87
78073;BME280;67281;48.770;11.440;2023-09-08T10:46:22;97539.00;;;23.55;50.55
78073;BME280;67281;48.770;11.440;2023-09-08T10:48:50;97545.84;;;23.57;50.61
78073;BME280;67281;48.770;11.440;2023-09-08T10:51:19;97534.78;;;23.61;50.69
78073;BME280;67281;48.770;11.440;2023-09-08T10:53:48;97536.72;;;23.67;51.04
78073;BME280;67281;48.770;11.440;2023-09-08T10:56:18;97529.53;;;23.67;50.83
78073;BME280;67281;48.770;11.440;2023-09-08T10:58:51;97528.31;;;23.70;50.21
78073;BME280;67281;48.770;11.440;2023-09-08T11:01:20;97527.97;;;23.73;50.61
78073;BME280;67281;48.770;11.440;2023-09-08T11:03:54;97529.69;;;23.80;51.00
78073;BME280;67281;48.770;11.440;2023-09-08T11:06:21;97518.97;;;23.80;50.16
78073;BME280;67281;48.770;11.440;2023-09-08T11:09:06;97528.31;;;23.84;50.42
78073;BME280;67281;48.770;11.440;2023-09-08T11:11:33;97523.25;;;23.89;50.98
78073;BME280;67281;48.770;11.440;2023-09-08T11:14:00;97517.69;;;23.91;50.57
78073;BME280;67281;48.770;11.440;2023-09-08T11:16:28;97525.19;;;23.96;50.07
78073;BME280;67281;48.770;11.440;2023-09-08T11:18:58;97525.63;;;23.99;50.71
78073;BME280;67281;48.770;11.440;2023-09-08T11:21:25;97512.91;;;24.01;49.97
78073;BME280;67281;48.770;11.440;2023-09-08T11:23:52;97515.38;;;24.03;49.96
78073;BME280;67281;48.770;11.440;2023-09-08T11:26:19;97516.88;;;24.05;50.37
78073;BME280;67281;48.770;11.440;2023-09-08T11:28:46;97515.66;;;24.08;50.04
78073;BME280;67281;48.770;11.440;2023-09-08T11:31:16;97516.97;;;24.12;49.96
78073;BME280;67281;48.770;11.440;2023-09-08T11:33:43;97514.09;;;24.13;50.30
78073;BME280;67281;48.770;11.440;2023-09-08T11:36:14;97515.56;;;24.16;50.06
78073;BME280;67281;48.770;11.440;2023-09-08T11:38:42;97521.56;;;24.18;49.66
78073;BME280;67281;48.770;11.440;2023-09-08T11:41:10;97525.34;;;24.23;49.79
78073;BME280;67281;48.770;11.440;2023-09-08T11:43:37;97518.00;;;24.26;50.34
78073;BME280;67281;48.770;11.440;2023-09-08T11:46:04;97516.97;;;24.27;50.31
78073;BME280;67281;48.770;11.440;2023-09-08T11:48:31;97515.41;;;24.32;50.32
78073;BME280;67281;48.770;11.440;2023-09-08T11:50:59;97515.22;;;24.34;49.84
78073;BME280;67281;48.770;11.440;2023-09-08T11:53:26;97520.00;;;24.38;49.76
78073;BME280;67281;48.770;11.440;2023-09-08T11:55:54;97523.78;;;24.44;50.06
78073;BME280;67281;48.770;11.440;2023-09-08T11:58:22;97515.94;;;24.42;49.42
78073;BME280;67281;48.770;11.440;2023-09-08T12:00:49;97521.28;;;24.42;50.16
78073;BME280;67281;48.770;11.440;2023-09-08T12:03:16;97520.72;;;24.47;50.20
78073;BME280;67281;48.770;11.440;2023-09-08T12:05:51;97522.00;;;24.51;49.75
78073;BME280;67281;48.770;11.440;2023-09-08T12:08:19;97521.81;;;24.52;50.13
78073;BME280;67281;48.770;11.440;2023-09-08T12:10:46;97517.09;;;24.54;50.08
78073;BME280;67281;48.770;11.440;2023-09-08T12:13:13;97512.00;;;24.60;50.19
78073;BME280;67281;48.770;11.440;2023-09-08T12:15:41;97516.13;;;24.62;49.67
78073;BME280;67281;48.770;11.440;2023-09-08T12:18:12;97520.47;;;24.63;49.82
78073;BME280;67281;48.770;11.440;2023-09-08T12:20:40;97512.44;;;24.63;49.66
78073;BME280;67281;48.770;11.440;2023-09-08T12:25:46;97519.72;;;24.69;49.64
78073;BME280;67281;48.770;11.440;2023-09-08T12:28:13;97506.97;;;24.71;49.94
78073;BME280;67281;48.770;11.440;2023-09-08T12:30:40;97499.75;;;24.72;49.32
78073;BME280;67281;48.770;11.440;2023-09-08T12:33:07;97502.06;;;24.75;49.56
78073;BME280;67281;48.770;11.440;2023-09-08T12:35:34;97512.41;;;24.78;49.36
78073;BME280;67281;48.770;11.440;2023-09-08T12:38:05;97507.88;;;24.78;49.43
78073;BME280;67281;48.770;11.440;2023-09-08T12:40:37;97504.16;;;24.79;49.53
78073;BME280;67281;48.770;11.440;2023-09-08T12:43:04;97505.63;;;24.82;49.02
78073;BME280;67281;48.770;11.440;2023-09-08T12:45:51;97500.53;;;24.87;49.39
78073;BME280;67281;48.770;11.440;2023-09-08T12:48:18;97499.97;;;24.92;49.37
78073;BME280;67281;48.770;11.440;2023-09-08T12:50:46;97490.91;;;24.93;49.11
78073;BME280;67281;48.770;11.440;2023-09-08T12:53:15;97489.53;;;24.97;48.77
78073;BME280;67281;48.770;11.440;2023-09-08T12:55:45;97490.97;;;24.99;49.09
78073;BME280;67281;48.770;11.440;2023-09-08T12:58:12;97487.28;;;25.00;49.24
78073;BME280;67281;48.770;11.440;2023-09-08T13:00:38;97492.47;;;25.02;49.18
78073;BME280;67281;48.770;11.440;2023-09-08T13:03:05;97488.38;;;25.06;49.08
78073;BME280;67281;48.770;11.440;2023-09-08T13:05:32;97487.97;;;25.09;48.70